Time;durP1;ratioP1;P1;durP2;ratioP2;P2;SDS_P1;SDS_P2;PMS_P1;PMS_P2;Temp;Humidity;BMP_temperature;BMP_pressure;BME280_temperature;BME280_humidity;BME280_pressure;Samples;Min_cycle;Max_cycle;Signal;HPM_P1;HPM_P2
2022/07/16 00:01:47;;;;;;;4.40;1.90;;;16.80;99.90;;;;;;4985373;28;20143;-70
2022/07/16 00:04:13;;;;;;;4.30;1.55;;;16.80;99.90;;;;;;5005806;28;20054;-70
2022/07/16 00:06:39;;;;;;;5.13;1.73;;;16.80;99.90;;;;;;5004190;28;20104;-70
2022/07/16 00:09:04;;;;;;;3.95;1.40;;;16.80;99.90;;;;;;5002856;28;20112;-70
2022/07/16 00:11:30;;;;;;;4.07;1.50;;;16.80;99.90;;;;;;5018121;28;20049;-70
2022/07/16 00:13:56;;;;;;;3.40;1.60;;;16.90;99.90;;;;;;5003938;28;20062;-70
2022/07/16 00:16:21;;;;;;;3.40;1.60;;;16.90;99.90;;;;;;5003332;28;20033;-70
2022/07/16 00:21:31;;;;;;;3.58;1.63;;;16.90;99.90;;;;;;5018885;28;20691;-70
2022/07/16 00:23:59;;;;;;;3.83;1.85;;;16.90;99.90;;;;;;5002215;28;20087;-70
2022/07/16 00:26:24;;;;;;;4.72;2.00;;;16.90;99.90;;;;;;5020142;28;20042;-70
2022/07/16 00:28:50;;;;;;;4.57;1.95;;;16.90;99.90;;;;;;5010686;28;20037;-70
2022/07/16 00:31:16;;;;;;;3.67;1.52;;;16.90;99.90;;;;;;5021804;28;20045;-71
2022/07/16 00:33:42;;;;;;;3.67;1.75;;;17.00;99.90;;;;;;5005855;28;20115;-70
2022/07/16 00:36:08;;;;;;;3.33;1.88;;;17.00;99.90;;;;;;5008844;28;20038;-70
2022/07/16 00:38:34;;;;;;;;;;;16.90;99.90;;;;;;5004453;28;20099;-70
2022/07/16 00:40:59;;;;;;;7.55;2.35;;;17.00;99.90;;;;;;5007308;28;19921;-71
2022/07/16 00:43:25;;;;;;;9.35;2.35;;;16.90;99.90;;;;;;5000407;28;20042;-71
2022/07/16 00:45:50;;;;;;;2.95;1.52;;;16.90;99.90;;;;;;5005568;28;20169;-72
2022/07/16 00:48:16;;;;;;;2.60;1.40;;;16.90;99.90;;;;;;5016399;28;20057;-72
2022/07/16 00:50:42;;;;;;;2.95;1.30;;;16.90;99.90;;;;;;5005169;28;20053;-71
2022/07/16 00:53:09;;;;;;;2.28;1.20;;;16.70;99.90;;;;;;4994357;28;20434;-71
2022/07/16 00:55:36;;;;;;;2.80;1.00;;;16.70;99.90;;;;;;5005631;28;20080;-72
2022/07/16 00:58:01;;;;;;;;;;;16.70;99.90;;;;;;5007226;28;20113;-71
2022/07/16 01:00:28;;;;;;;2.80;1.23;;;16.60;99.90;;;;;;5005728;28;20008;-71
2022/07/16 01:02:55;;;;;;;2.00;0.80;;;16.60;99.90;;;;;;5006592;28;20092;-71
2022/07/16 01:05:20;;;;;;;1.85;0.80;;;16.50;99.90;;;;;;5006546;28;20057;-71
2022/07/16 01:07:46;;;;;;;4.03;1.38;;;16.50;99.90;;;;;;5007199;28;20408;-71
2022/07/16 01:10:13;;;;;;;4.00;0.90;;;16.50;99.90;;;;;;5007151;28;20077;-71
2022/07/16 01:12:39;;;;;;;1.73;0.60;;;16.40;99.90;;;;;;4988924;28;20133;-71
2022/07/16 01:15:05;;;;;;;3.45;0.77;;;16.40;99.90;;;;;;5017343;28;20100;-71
2022/07/16 01:17:31;;;;;;;3.60;1.00;;;16.50;99.90;;;;;;5002186;28;20049;-71
2022/07/16 01:19:57;;;;;;;2.35;0.98;;;16.50;99.90;;;;;;5002657;28;20037;-71
2022/07/16 01:22:24;;;;;;;2.47;0.65;;;16.40;99.90;;;;;;5004297;28;20025;-71
2022/07/16 01:24:51;;;;;;;2.17;1.13;;;16.50;99.90;;;;;;5005961;28;20052;-71
2022/07/16 01:27:20;;;;;;;1.77;0.70;;;16.40;99.90;;;;;;5005865;28;20040;-71
2022/07/16 01:29:47;;;;;;;2.70;0.88;;;16.50;99.90;;;;;;5004135;28;20184;-71
2022/07/16 01:32:13;;;;;;;1.60;0.65;;;16.50;99.90;;;;;;5007518;28;20311;-71
2022/07/16 01:34:38;;;;;;;1.27;0.88;;;16.50;99.90;;;;;;5000917;28;20522;-71
2022/07/16 01:37:06;;;;;;;2.28;0.80;;;16.50;99.90;;;;;;5005773;28;20133;-72
2022/07/16 01:39:36;;;;;;;3.83;0.50;;;16.40;99.90;;;;;;5000699;28;20046;-71
2022/07/16 01:42:04;;;;;;;3.33;0.80;;;16.40;99.90;;;;;;5003813;28;20471;-71
2022/07/16 01:44:32;;;;;;;2.47;0.70;;;16.40;99.90;;;;;;5000683;28;20058;-71
2022/07/16 01:46:59;;;;;;;1.70;0.50;;;16.40;99.90;;;;;;5006499;28;20048;-71
2022/07/16 01:49:29;;;;;;;6.30;0.75;;;16.30;99.90;;;;;;5003561;28;20463;-71
2022/07/16 01:51:54;;;;;;;1.77;0.70;;;16.40;99.90;;;;;;5004291;28;20451;-71
2022/07/16 01:54:20;;;;;;;1.88;0.60;;;16.40;99.90;;;;;;4999280;28;20086;-71
2022/07/16 01:56:46;;;;;;;1.63;0.50;;;16.40;99.90;;;;;;5001665;28;20046;-71
2022/07/16 01:59:11;;;;;;;6.38;1.05;;;16.30;99.90;;;;;;5005510;28;20040;-71
2022/07/16 02:01:37;;;;;;;5.65;0.70;;;16.30;99.90;;;;;;5005353;28;20121;-71
2022/07/16 02:04:03;;;;;;;1.95;0.77;;;16.30;99.90;;;;;;5004401;28;20511;-71
2022/07/16 02:06:28;;;;;;;1.67;0.65;;;16.30;99.90;;;;;;5002680;28;20466;-71
2022/07/16 02:08:54;;;;;;;1.80;0.93;;;16.30;99.90;;;;;;5004686;28;20582;-71
2022/07/16 02:11:20;;;;;;;1.67;0.63;;;16.30;99.90;;;;;;5002776;28;20263;-71
2022/07/16 02:13:46;;;;;;;2.35;0.88;;;16.30;99.90;;;;;;4997969;28;20236;-71
2022/07/16 02:16:11;;;;;;;1.63;0.80;;;16.20;99.90;;;;;;5019977;28;20033;-71
2022/07/16 02:18:37;;;;;;;4.63;0.75;;;16.10;99.90;;;;;;5003338;28;20046;-71
2022/07/16 02:21:04;;;;;;;4.32;0.90;;;16.20;99.90;;;;;;5002870;28;20541;-71
2022/07/16 02:23:29;;;;;;;;;;;16.20;99.90;;;;;;5007543;28;20085;-71
2022/07/16 02:25:55;;;;;;;4.22;0.60;;;16.10;99.90;;;;;;5003924;28;20369;-71
2022/07/16 02:28:21;;;;;;;2.90;0.55;;;16.10;99.90;;;;;;5005248;28;20046;-71
2022/07/16 02:30:51;;;;;;;2.05;0.70;;;16.10;99.90;;;;;;5003087;28;20221;-71
2022/07/16 02:33:19;;;;;;;1.35;0.65;;;16.10;99.90;;;;;;5003251;28;20471;-71
2022/07/16 02:35:45;;;;;;;1.95;0.70;;;16.10;99.90;;;;;;4997594;28;20038;-71
2022/07/16 02:38:12;;;;;;;2.53;0.80;;;16.00;99.90;;;;;;5002405;28;20383;-71
2022/07/16 02:40:39;;;;;;;2.08;0.57;;;16.00;99.90;;;;;;4987777;28;20120;-71
2022/07/16 02:43:06;;;;;;;2.28;0.90;;;16.00;99.90;;;;;;5005853;28;20553;-71
2022/07/16 02:45:35;;;;;;;1.63;0.70;;;16.00;99.90;;;;;;4996918;28;20037;-71
2022/07/16 02:48:01;;;;;;;1.42;0.60;;;15.90;99.90;;;;;;5002024;28;20072;-71
2022/07/16 02:50:28;;;;;;;3.30;0.70;;;15.90;99.90;;;;;;5001445;28;20414;-71
2022/07/16 02:52:54;;;;;;;2.30;1.00;;;15.90;99.90;;;;;;4996461;28;20034;-71
2022/07/16 02:55:20;;;;;;;2.25;0.90;;;15.90;99.90;;;;;;4995621;28;20490;-71
2022/07/16 02:57:45;;;;;;;3.40;0.80;;;15.90;99.90;;;;;;5003844;28;20045;-70
2022/07/16 03:00:13;;;;;;;1.83;0.87;;;15.90;99.90;;;;;;5002969;28;20514;-71
2022/07/16 03:02:39;;;;;;;3.58;1.10;;;15.80;99.90;;;;;;5001611;28;20545;-71
2022/07/16 03:05:05;;;;;;;2.90;0.63;;;15.80;99.90;;;;;;5003874;28;20557;-70
2022/07/16 03:07:31;;;;;;;;;;;15.70;99.90;;;;;;5002241;28;20053;-70
2022/07/16 03:09:57;;;;;;;1.67;0.80;;;15.70;99.90;;;;;;5001961;28;19923;-71
2022/07/16 03:12:23;;;;;;;3.25;0.90;;;15.60;99.90;;;;;;4996715;28;20258;-71
2022/07/16 03:14:49;;;;;;;2.50;0.90;;;15.60;99.90;;;;;;5003327;28;20044;-71
2022/07/16 03:17:14;;;;;;;2.05;1.00;;;15.60;99.90;;;;;;5004430;28;20038;-71
2022/07/16 03:19:41;;;;;;;5.63;1.10;;;15.60;99.90;;;;;;5003147;28;20406;-71
2022/07/16 03:22:06;;;;;;;;;;;15.50;99.90;;;;;;5002104;28;20111;-71
2022/07/16 03:24:32;;;;;;;2.83;1.05;;;15.50;99.90;;;;;;4980941;28;19918;-71
2022/07/16 03:26:58;;;;;;;3.55;0.88;;;15.50;99.90;;;;;;5004187;28;20071;-71
2022/07/16 03:29:23;;;;;;;5.35;1.25;;;15.50;99.90;;;;;;5002642;28;20045;-71
2022/07/16 03:31:49;;;;;;;2.30;0.75;;;15.50;99.90;;;;;;5003511;28;20033;-71
2022/07/16 03:34:15;;;;;;;2.08;0.80;;;15.50;99.90;;;;;;5001899;28;20135;-71
2022/07/16 03:36:41;;;;;;;1.92;0.90;;;15.50;99.90;;;;;;4984480;28;20104;-71
2022/07/16 03:39:06;;;;;;;1.92;0.90;;;15.50;99.90;;;;;;5003283;28;20465;-71
2022/07/16 03:41:35;;;;;;;4.32;1.00;;;15.40;99.90;;;;;;4995354;28;20469;-71
2022/07/16 03:44:02;;;;;;;2.70;0.90;;;15.40;99.90;;;;;;4999104;28;20367;-71
2022/07/16 03:46:29;;;;;;;2.35;0.88;;;15.30;99.90;;;;;;5000184;28;20049;-71
2022/07/16 03:48:55;;;;;;;1.77;0.90;;;15.30;99.90;;;;;;5002074;28;20324;-71
2022/07/16 03:51:20;;;;;;;2.72;1.10;;;15.30;99.90;;;;;;5002974;28;20061;-71
2022/07/16 03:53:46;;;;;;;3.65;1.10;;;15.30;99.90;;;;;;4997390;28;20057;-71
2022/07/16 03:56:11;;;;;;;1.90;0.83;;;15.20;99.90;;;;;;4998245;28;20592;-70
2022/07/16 03:58:37;;;;;;;2.10;0.90;;;15.20;99.90;;;;;;5000183;28;20366;-71
2022/07/16 04:01:03;;;;;;;3.07;0.80;;;15.20;99.90;;;;;;5003725;28;20497;-71
2022/07/16 04:03:28;;;;;;;2.03;0.60;;;15.10;99.90;;;;;;5006126;28;20358;-71
2022/07/16 04:05:54;;;;;;;5.32;0.75;;;15.10;99.90;;;;;;5004145;28;20340;-70
2022/07/16 04:08:20;;;;;;;7.30;0.83;;;15.10;99.90;;;;;;5003647;28;20080;-71
2022/07/16 04:10:45;;;;;;;2.13;0.85;;;15.10;99.90;;;;;;5001418;28;20300;-71
2022/07/16 04:13:11;;;;;;;4.78;0.93;;;15.10;99.90;;;;;;5003850;28;20049;-71
2022/07/16 04:15:37;;;;;;;3.83;0.93;;;15.00;99.90;;;;;;5010220;28;20038;-71
2022/07/16 04:18:02;;;;;;;3.15;1.20;;;15.00;99.90;;;;;;5009314;28;20342;-71
2022/07/16 04:20:28;;;;;;;3.37;0.90;;;14.90;99.90;;;;;;5000473;28;20042;-71
2022/07/16 04:22:54;;;;;;;5.45;1.00;;;15.00;99.90;;;;;;5003615;28;20074;-71
2022/07/16 04:25:20;;;;;;;2.73;0.80;;;15.00;99.90;;;;;;5006181;28;20033;-71
2022/07/16 04:27:47;;;;;;;7.05;1.00;;;14.90;99.90;;;;;;5004928;28;20296;-71
2022/07/16 04:30:13;;;;;;;2.63;0.75;;;14.90;99.90;;;;;;5012329;28;20080;-71
2022/07/16 04:32:40;;;;;;;4.95;0.95;;;14.90;99.90;;;;;;5007726;28;20145;-71
2022/07/16 04:35:07;;;;;;;3.70;0.70;;;14.90;99.90;;;;;;5006844;28;20119;-71
2022/07/16 04:37:33;;;;;;;4.47;0.90;;;14.90;99.90;;;;;;5006395;28;20141;-71
2022/07/16 04:39:59;;;;;;;2.78;0.60;;;14.90;99.90;;;;;;5005900;28;20109;-71
2022/07/16 04:42:24;;;;;;;5.43;0.90;;;14.90;99.90;;;;;;5004524;28;20125;-71
2022/07/16 04:44:50;;;;;;;1.48;0.50;;;14.90;99.90;;;;;;5004740;28;20129;-71
2022/07/16 04:47:16;;;;;;;5.53;1.02;;;14.90;99.90;;;;;;5004475;28;20041;-71
2022/07/16 04:49:41;;;;;;;2.50;0.57;;;14.90;99.90;;;;;;5007354;28;20564;-71
2022/07/16 04:52:07;;;;;;;3.07;0.77;;;14.90;99.90;;;;;;5007311;28;20087;-70
2022/07/16 04:54:33;;;;;;;3.00;0.70;;;14.90;99.90;;;;;;4998197;28;20820;-71
2022/07/16 04:57:17;;;;;;;2.47;0.90;;;15.00;99.90;;;;;;5019661;22;20045;-84
2022/07/16 04:59:43;;;;;;;2.33;0.70;;;15.00;99.90;;;;;;4992603;28;20619;-83
2022/07/16 05:04:55;;;;;;;2.03;0.68;;;15.00;99.90;;;;;;4994697;28;20050;-83
2022/07/16 05:07:24;;;;;;;3.40;0.90;;;15.00;99.90;;;;;;4973984;28;20045;-84
2022/07/16 05:10:01;;;;;;;5.35;0.55;;;15.10;99.90;;;;;;4975041;28;20038;-83
2022/07/16 05:12:30;;;;;;;2.33;0.93;;;15.20;99.90;;;;;;4972682;28;20074;-85
2022/07/16 05:14:55;;;;;;;2.38;0.88;;;15.10;99.90;;;;;;4972481;28;20072;-84
2022/07/16 05:17:23;;;;;;;3.42;0.65;;;15.20;99.90;;;;;;4974792;28;20074;-83
2022/07/16 05:19:49;;;;;;;3.15;1.15;;;15.20;99.90;;;;;;4972520;28;20046;-84
2022/07/16 05:22:20;;;;;;;2.00;0.57;;;15.10;99.90;;;;;;4977270;28;20043;-84
2022/07/16 05:24:49;;;;;;;2.55;1.02;;;15.10;99.90;;;;;;4979540;28;20050;-83
2022/07/16 05:27:16;;;;;;;2.83;0.60;;;15.20;99.90;;;;;;4981615;28;20537;-84
2022/07/16 05:29:42;;;;;;;2.28;0.70;;;15.10;99.90;;;;;;4973194;28;20082;-84
2022/07/16 05:32:08;;;;;;;3.10;0.98;;;15.20;99.90;;;;;;4974400;28;20043;-84
2022/07/16 05:34:45;;;;;;;2.85;0.88;;;15.20;99.90;;;;;;4977528;28;20042;-84
2022/07/16 05:37:16;;;;;;;2.47;0.60;;;15.20;99.90;;;;;;4970147;28;20098;-84
2022/07/16 05:39:44;;;;;;;6.35;0.60;;;15.20;99.90;;;;;;4973684;28;20102;-83
2022/07/16 05:42:10;;;;;;;1.85;0.50;;;15.40;99.90;;;;;;4972191;28;20031;-83
2022/07/16 05:44:38;;;;;;;3.85;1.52;;;15.30;99.90;;;;;;4973660;28;20043;-84
2022/07/16 05:47:04;;;;;;;3.95;0.52;;;15.30;99.90;;;;;;4978647;28;20038;-84
2022/07/16 05:49:35;;;;;;;5.88;0.40;;;15.40;99.90;;;;;;4977092;28;20051;-83
2022/07/16 05:52:01;;;;;;;3.38;0.60;;;15.40;99.90;;;;;;4969277;28;20042;-83
2022/07/16 05:54:26;;;;;;;0.80;0.40;;;15.40;99.90;;;;;;4968677;28;20043;-84
2022/07/16 05:56:52;;;;;;;2.97;0.60;;;15.40;99.90;;;;;;4975028;28;20073;-84
2022/07/16 05:59:18;;;;;;;6.93;1.20;;;15.40;99.90;;;;;;4975778;28;20119;-85
2022/07/16 06:01:46;;;;;;;3.92;0.45;;;15.50;99.90;;;;;;4971161;28;20595;-84
2022/07/16 06:04:15;;;;;;;3.42;1.42;;;15.50;99.90;;;;;;4974413;28;20050;-84
2022/07/16 06:06:43;;;;;;;2.75;0.75;;;15.50;99.90;;;;;;4972382;28;20087;-83
2022/07/16 06:09:12;;;;;;;2.90;1.02;;;15.50;99.90;;;;;;4977337;28;20070;-83
2022/07/16 06:11:46;;;;;;;2.65;0.45;;;15.50;99.90;;;;;;4973346;28;20347;-84
2022/07/16 06:14:11;;;;;;;5.93;0.70;;;15.60;99.90;;;;;;4970370;28;20348;-84
2022/07/16 06:16:40;;;;;;;4.05;0.90;;;15.60;99.90;;;;;;4973564;28;20452;-85
2022/07/16 06:19:06;;;;;;;1.25;0.30;;;15.60;99.90;;;;;;4952348;28;20409;-84
2022/07/16 06:21:38;;;;;;;2.25;0.55;;;15.60;99.90;;;;;;4970370;28;20035;-84
2022/07/16 06:24:04;;;;;;;3.55;0.52;;;15.70;99.90;;;;;;4966408;28;20450;-84
2022/07/16 06:26:32;;;;;;;6.00;0.70;;;15.70;99.90;;;;;;4970776;28;20049;-83
2022/07/16 06:28:58;;;;;;;1.77;0.85;;;15.70;99.90;;;;;;4974119;28;20480;-84
2022/07/16 06:31:31;;;;;;;3.90;0.85;;;15.80;99.90;;;;;;4970069;28;20149;-84
2022/07/16 06:33:57;;;;;;;2.65;0.40;;;15.80;99.90;;;;;;4971702;28;20457;-84
2022/07/16 06:36:28;;;;;;;6.38;0.80;;;15.90;99.90;;;;;;4973864;28;20027;-82
2022/07/16 06:39:04;;;;;;;4.20;0.70;;;15.90;99.90;;;;;;4952547;28;20077;-84
2022/07/16 06:41:31;;;;;;;1.17;0.40;;;16.00;99.90;;;;;;4970186;28;20050;-83
2022/07/16 06:43:59;;;;;;;1.65;0.43;;;16.00;99.90;;;;;;4973594;28;20074;-84
2022/07/16 06:46:25;;;;;;;2.10;0.38;;;16.10;99.90;;;;;;4972914;28;20074;-84
2022/07/16 06:48:54;;;;;;;4.60;0.57;;;16.10;99.90;;;;;;4975248;28;20051;-84
2022/07/16 06:51:22;;;;;;;4.28;0.40;;;16.10;99.90;;;;;;4985531;28;20077;-84
2022/07/16 06:53:48;;;;;;;1.55;0.60;;;16.10;99.90;;;;;;4968246;28;20047;-83
2022/07/16 06:56:19;;;;;;;2.75;0.40;;;16.20;99.90;;;;;;4951190;28;20046;-84
2022/07/16 06:58:45;;;;;;;1.17;0.30;;;16.20;99.90;;;;;;4969397;28;20035;-83
2022/07/16 07:01:13;;;;;;;3.33;0.77;;;16.30;99.90;;;;;;4975415;28;20489;-84
2022/07/16 07:03:56;;;;;;;2.38;0.40;;;16.20;99.90;;;;;;4972425;28;20042;-84
2022/07/16 07:06:22;;;;;;;2.53;0.50;;;16.10;99.90;;;;;;4961020;28;20053;-84
2022/07/16 07:08:50;;;;;;;4.35;0.45;;;16.00;99.90;;;;;;4960475;28;20129;-84
2022/07/16 07:11:26;;;;;;;1.00;0.15;;;16.00;99.90;;;;;;4969533;28;20079;-84
2022/07/16 07:13:54;;;;;;;0.95;0.35;;;16.10;99.90;;;;;;4954672;28;20043;-84
2022/07/16 07:16:22;;;;;;;0.68;0.20;;;16.00;99.90;;;;;;4953126;28;20409;-84
2022/07/16 07:18:51;;;;;;;2.42;0.47;;;16.10;99.90;;;;;;4969409;28;20213;-85
2022/07/16 07:21:17;;;;;;;0.43;0.20;;;16.00;99.90;;;;;;4946808;28;20043;-84
2022/07/16 07:23:43;;;;;;;1.95;0.30;;;16.10;99.90;;;;;;4970881;28;20035;-83
2022/07/16 07:26:08;;;;;;;1.85;0.32;;;16.20;99.90;;;;;;4971778;28;20050;-83
2022/07/16 07:28:34;;;;;;;3.90;0.50;;;16.10;99.90;;;;;;4969489;28;20035;-84
2022/07/16 07:31:06;;;;;;;4.07;0.70;;;16.20;99.90;;;;;;4977621;28;20036;-83
2022/07/16 07:33:32;;;;;;;1.75;1.20;;;16.30;99.90;;;;;;4978484;28;20110;-84
2022/07/16 07:36:00;;;;;;;2.47;0.55;;;16.30;99.90;;;;;;4972217;28;20047;-84
2022/07/16 07:38:26;;;;;;;1.05;0.20;;;16.30;99.90;;;;;;4971315;28;20027;-84
2022/07/16 07:40:52;;;;;;;2.92;0.30;;;16.40;99.90;;;;;;4973728;28;20509;-84
2022/07/16 07:43:25;;;;;;;1.58;0.63;;;16.40;99.90;;;;;;4966950;28;20514;-85
2022/07/16 07:45:51;;;;;;;1.60;0.38;;;16.40;99.90;;;;;;4967893;28;20050;-83
2022/07/16 07:48:17;;;;;;;3.08;0.40;;;16.40;99.90;;;;;;4970357;28;20043;-84
2022/07/16 07:50:45;;;;;;;1.63;0.50;;;16.40;99.90;;;;;;4972548;28;20071;-84
2022/07/16 07:53:11;;;;;;;1.08;0.28;;;16.50;99.90;;;;;;4970348;28;20521;-84
2022/07/16 07:55:37;;;;;;;1.70;0.38;;;16.60;99.90;;;;;;4966685;28;20030;-84
2022/07/16 07:58:06;;;;;;;0.98;0.20;;;16.60;99.90;;;;;;4968300;28;20043;-82
2022/07/16 08:00:31;;;;;;;1.38;0.28;;;16.80;99.90;;;;;;4972713;28;20043;-84
2022/07/16 08:03:08;;;;;;;2.45;0.40;;;16.80;99.90;;;;;;4971671;28;20049;-84
2022/07/16 08:05:33;;;;;;;0.98;0.30;;;17.00;99.90;;;;;;4973401;28;20118;-84
2022/07/16 08:07:59;;;;;;;1.08;0.35;;;17.00;99.90;;;;;;4973752;28;20063;-85
2022/07/16 08:10:30;;;;;;;2.40;0.30;;;17.00;99.90;;;;;;4969009;28;20482;-84
2022/07/16 08:12:56;;;;;;;3.00;0.30;;;17.10;99.90;;;;;;4952197;28;20053;-84
2022/07/16 08:15:24;;;;;;;2.35;0.52;;;17.10;99.90;;;;;;4973736;28;20031;-85
2022/07/16 08:17:50;;;;;;;2.05;0.35;;;17.20;99.90;;;;;;4975589;28;20046;-85
2022/07/16 08:20:16;;;;;;;1.92;0.30;;;17.20;99.90;;;;;;4958551;28;20468;-84
2022/07/16 08:22:42;;;;;;;3.85;0.38;;;17.20;99.90;;;;;;4977172;28;20097;-84
2022/07/16 08:27:55;;;;;;;4.25;0.43;;;17.20;99.90;;;;;;4984964;28;20047;-85
2022/07/16 08:30:21;;;;;;;3.88;0.40;;;17.20;99.90;;;;;;4968194;28;20098;-85
2022/07/16 08:32:52;;;;;;;3.20;0.68;;;17.10;99.90;;;;;;4953883;28;20696;-85
2022/07/16 08:35:21;;;;;;;1.30;0.43;;;17.10;99.90;;;;;;4955716;28;20494;-84
2022/07/16 08:37:50;;;;;;;2.65;0.40;;;17.20;99.90;;;;;;4971601;28;20054;-85
2022/07/16 08:40:24;;;;;;;1.05;0.50;;;17.30;99.90;;;;;;4972096;28;20402;-85
2022/07/16 08:43:08;;;;;;;3.60;0.80;;;17.20;99.90;;;;;;4953867;28;20504;-83
2022/07/16 08:45:37;;;;;;;1.95;0.52;;;17.30;99.90;;;;;;4966517;28;20048;-84
2022/07/16 08:48:03;;;;;;;3.45;0.60;;;17.30;99.90;;;;;;4995659;28;20596;-85
2022/07/16 08:50:29;;;;;;;2.25;0.40;;;17.40;99.90;;;;;;4976079;28;20066;-84
2022/07/16 08:53:13;;;;;;;6.55;0.55;;;17.50;99.90;;;;;;4969251;28;20635;-84
2022/07/16 08:55:44;;;;;;;6.40;0.57;;;17.50;99.90;;;;;;4952718;28;20520;-84
2022/07/16 08:58:22;;;;;;;1.88;0.47;;;17.50;99.90;;;;;;4976184;28;20114;-86
2022/07/16 09:00:51;;;;;;;4.80;0.70;;;17.50;99.90;;;;;;4954456;28;20059;-85
2022/07/16 09:03:22;;;;;;;2.58;0.43;;;17.50;99.90;;;;;;4973665;28;20038;-85
2022/07/16 09:05:56;;;;;;;1.98;0.30;;;17.60;99.90;;;;;;4990044;28;20074;-84
2022/07/16 09:08:24;;;;;;;1.45;0.30;;;17.70;99.90;;;;;;4973638;28;20062;-84
2022/07/16 09:10:57;;;;;;;1.40;0.35;;;17.80;99.90;;;;;;4974484;28;20037;-85
2022/07/16 09:13:23;;;;;;;2.40;0.70;;;17.90;99.90;;;;;;4964872;28;20047;-84
2022/07/16 09:15:51;;;;;;;1.95;0.38;;;18.00;99.90;;;;;;4976887;28;20031;-86
2022/07/16 09:18:22;;;;;;;2.30;0.40;;;18.10;99.90;;;;;;4972353;28;20035;-86
2022/07/16 09:21:06;;;;;;;4.10;0.40;;;18.10;99.90;;;;;;4972373;28;20497;-84
2022/07/16 09:23:37;;;;;;;3.95;0.52;;;18.30;99.90;;;;;;4971504;28;20126;-83
2022/07/16 09:26:05;;;;;;;1.67;0.50;;;18.50;99.90;;;;;;4956324;28;20501;-86
2022/07/16 09:28:51;;;;;;;2.10;0.60;;;18.50;99.90;;;;;;4971523;28;20421;-85
2022/07/16 09:31:41;;;;;;;3.78;0.70;;;18.50;99.90;;;;;;4974008;28;20035;-84
2022/07/16 09:34:10;;;;;;;5.40;0.52;;;18.70;99.90;;;;;;4970856;28;20061;-84
2022/07/16 09:36:38;;;;;;;2.90;0.47;;;18.80;99.90;;;;;;4973644;28;20042;-83
2022/07/16 09:39:08;;;;;;;2.33;0.38;;;18.70;99.90;;;;;;4968184;28;20453;-85
2022/07/16 09:41:46;;;;;;;3.85;0.93;;;18.70;99.90;;;;;;4985304;28;20050;-84
2022/07/16 09:44:34;;;;;;;2.88;0.65;;;18.80;99.90;;;;;;4979619;28;20106;-84
2022/07/16 09:47:05;;;;;;;2.45;0.30;;;18.90;99.90;;;;;;4977653;28;20042;-85
2022/07/16 09:49:39;;;;;;;2.72;0.40;;;19.00;99.90;;;;;;4982725;28;20043;-85
2022/07/16 09:52:26;;;;;;;1.98;0.50;;;19.20;99.90;;;;;;4978761;28;20050;-85
2022/07/16 09:54:55;;;;;;;6.22;0.90;;;19.10;99.90;;;;;;4985718;28;20043;-85
2022/07/16 09:57:33;;;;;;;;;;;;;;;;;;;;;
2022/07/16 10:00:16;;;;;;;1.20;0.32;;;19.30;99.90;;;;;;4969914;28;20169;-85
2022/07/16 10:02:51;;;;;;;1.98;0.80;;;19.40;99.90;;;;;;4975455;28;20049;-86
2022/07/16 10:05:22;;;;;;;5.15;0.52;;;19.70;99.90;;;;;;4956911;28;20046;-84
2022/07/16 10:07:51;;;;;;;1.55;0.50;;;19.60;99.90;;;;;;4968629;28;20049;-86
2022/07/16 10:10:17;;;;;;;4.68;0.90;;;19.50;99.90;;;;;;4968210;28;20052;-84
2022/07/16 10:12:49;;;;;;;3.85;0.60;;;19.40;99.90;;;;;;4970552;28;20402;-84
2022/07/16 10:15:17;;;;;;;4.22;0.47;;;19.30;99.90;;;;;;4971236;28;20034;-85
2022/07/16 10:17:44;;;;;;;1.95;0.50;;;19.10;99.90;;;;;;4956094;28;20046;-84
2022/07/16 10:20:14;;;;;;;;;;;19.00;99.90;;;;;;4973427;28;20070;-85
2022/07/16 10:22:43;;;;;;;1.80;0.43;;;19.10;99.90;;;;;;4967069;28;20305;-84
2022/07/16 10:25:22;;;;;;;4.07;0.68;;;19.30;99.90;;;;;;4956104;28;20034;-85
2022/07/16 10:27:56;;;;;;;2.95;0.65;;;19.40;99.90;;;;;;4953106;28;20034;-84
2022/07/16 10:30:47;;;;;;;1.60;0.43;;;19.50;99.90;;;;;;4965365;28;20414;-84
2022/07/16 10:33:13;;;;;;;4.57;0.85;;;19.50;99.90;;;;;;4949224;28;20514;-85
2022/07/16 10:35:50;;;;;;;3.67;0.52;;;19.60;99.90;;;;;;4971334;28;20042;-84
2022/07/16 10:38:26;;;;;;;5.00;0.75;;;19.70;99.90;;;;;;4947953;28;20035;-85
2022/07/16 10:41:13;;;;;;;2.75;0.50;;;19.70;99.90;;;;;;4969249;28;20055;-83
2022/07/16 10:43:43;;;;;;;;;;;19.70;99.90;;;;;;4969766;28;20039;-84
2022/07/16 10:46:24;;;;;;;2.58;0.25;;;19.70;99.90;;;;;;4966584;28;19922;-84
2022/07/16 10:48:50;;;;;;;6.95;0.60;;;19.70;99.90;;;;;;4972076;28;20035;-85
2022/07/16 10:51:26;;;;;;;7.10;0.63;;;19.80;99.90;;;;;;4948557;28;20508;-85
2022/07/16 10:53:58;;;;;;;1.85;0.50;;;19.70;99.60;;;;;;4958386;28;20486;-84
2022/07/16 10:58:56;;;;;;;3.13;0.40;;;19.70;99.90;;;;;;4981838;28;20114;-71
2022/07/16 11:01:22;;;;;;;4.55;0.60;;;19.70;99.90;;;;;;4952030;28;20516;-70
2022/07/16 11:03:51;;;;;;;3.25;0.82;;;19.80;99.90;;;;;;4966126;28;20047;-71
2022/07/16 11:06:21;;;;;;;1.77;0.77;;;20.00;99.90;;;;;;4960117;28;20226;-71
2022/07/16 11:08:55;;;;;;;3.25;0.60;;;20.00;99.90;;;;;;4958603;28;20490;-71
2022/07/16 11:11:35;;;;;;;1.58;0.50;;;20.00;99.90;;;;;;4958297;28;20079;-71
2022/07/16 11:14:01;;;;;;;;;;;20.00;99.90;;;;;;4957925;28;20073;-71
2022/07/16 11:16:27;;;;;;;1.48;0.70;;;20.00;95.80;;;;;;4966645;28;20004;-72
2022/07/16 11:18:53;;;;;;;3.00;0.35;;;19.90;99.90;;;;;;4965533;28;20488;-72
2022/07/16 11:21:18;;;;;;;4.15;0.55;;;19.90;99.90;;;;;;4960485;28;20495;-71
2022/07/16 11:23:55;;;;;;;0.57;0.25;;;19.90;97.20;;;;;;4965139;28;20063;-71
2022/07/16 11:26:22;;;;;;;2.70;0.40;;;19.90;92.90;;;;;;4960845;28;20396;-70
2022/07/16 11:28:51;;;;;;;1.10;0.30;;;20.10;97.20;;;;;;4964604;28;20503;-69
2022/07/16 11:31:33;;;;;;;1.85;0.40;;;20.30;96.60;;;;;;4958077;28;20039;-69
2022/07/16 11:34:02;;;;;;;2.00;0.47;;;20.40;97.10;;;;;;4964178;28;20058;-69
2022/07/16 11:36:36;;;;;;;3.30;0.65;;;20.50;97.00;;;;;;4964952;28;20045;-70
2022/07/16 11:39:07;;;;;;;3.53;0.55;;;20.50;94.00;;;;;;4962221;28;20541;-69
2022/07/16 11:41:33;;;;;;;2.85;0.52;;;20.50;94.70;;;;;;4966794;28;20396;-70
2022/07/16 11:44:07;;;;;;;1.95;0.40;;;20.50;94.30;;;;;;4960272;28;20050;-70
2022/07/16 11:46:32;;;;;;;1.20;0.40;;;20.50;93.40;;;;;;4956400;28;20145;-70
2022/07/16 11:48:58;;;;;;;1.25;0.60;;;20.20;92.60;;;;;;4963440;28;20126;-70
2022/07/16 11:51:25;;;;;;;3.95;0.70;;;20.30;93.70;;;;;;4964194;28;20067;-69
2022/07/16 11:53:52;;;;;;;3.17;0.73;;;20.40;93.20;;;;;;4965748;28;20046;-70
2022/07/16 11:56:36;;;;;;;2.55;1.33;;;20.30;92.40;;;;;;4954470;28;20053;-70
2022/07/16 11:59:04;;;;;;;4.18;0.47;;;20.20;92.60;;;;;;4958856;28;20039;-70
2022/07/16 12:01:37;;;;;;;1.92;0.43;;;20.10;95.20;;;;;;4959844;28;20190;-70
2022/07/16 12:04:03;;;;;;;1.00;0.40;;;20.00;97.50;;;;;;4962501;28;20116;-69
2022/07/16 12:06:29;;;;;;;5.18;0.80;;;20.20;98.40;;;;;;4965525;28;20128;-70
2022/07/16 12:08:56;;;;;;;5.63;0.80;;;20.20;99.00;;;;;;4963936;28;20142;-70
2022/07/16 12:11:32;;;;;;;2.78;0.55;;;20.20;99.90;;;;;;4966635;28;20043;-70
2022/07/16 12:13:58;;;;;;;2.58;0.73;;;20.20;99.90;;;;;;4960334;28;20050;-69
2022/07/16 12:16:24;;;;;;;;;;;20.20;99.90;;;;;;4963567;28;20035;-69
2022/07/16 12:19:13;;;;;;;2.50;0.52;;;20.30;99.90;;;;;;4962731;28;20057;-70
2022/07/16 12:21:40;;;;;;;2.75;0.50;;;20.40;99.90;;;;;;4956150;28;20058;-70
2022/07/16 12:24:09;;;;;;;4.68;0.60;;;20.60;99.90;;;;;;4971317;28;20403;-70
2022/07/16 12:26:38;;;;;;;1.23;0.52;;;20.80;98.80;;;;;;4962567;28;20034;-70
2022/07/16 12:29:06;;;;;;;4.35;0.63;;;20.90;98.30;;;;;;4962354;28;20098;-70
2022/07/16 12:31:34;;;;;;;5.68;0.77;;;20.70;98.10;;;;;;4970425;28;20353;-70
2022/07/16 12:34:01;;;;;;;2.35;0.63;;;20.60;98.30;;;;;;4967620;28;20552;-69
2022/07/16 12:36:38;;;;;;;4.68;0.65;;;20.40;97.90;;;;;;4964607;28;20504;-70
2022/07/16 12:39:06;;;;;;;3.17;0.68;;;20.40;97.70;;;;;;4965144;28;20061;-72
2022/07/16 12:41:40;;;;;;;1.23;0.47;;;20.50;98.30;;;;;;4965853;28;20046;-70
2022/07/16 12:44:14;;;;;;;2.13;0.80;;;20.50;98.10;;;;;;4961017;28;20046;-70
2022/07/16 12:46:48;;;;;;;2.80;0.50;;;20.50;97.10;;;;;;4948123;28;20118;-70
2022/07/16 12:49:17;;;;;;;3.28;0.57;;;20.40;97.90;;;;;;4966814;28;20039;-70
2022/07/16 12:51:45;;;;;;;3.92;0.60;;;20.30;98.90;;;;;;4959699;28;20479;-70
2022/07/16 12:54:13;;;;;;;1.52;0.57;;;20.30;98.30;;;;;;4965906;28;20395;-70
2022/07/16 12:59:24;;;;;;;1.77;0.45;;;20.50;97.30;;;;;;4960042;28;20572;-70
2022/07/16 13:01:50;;;;;;;3.75;0.40;;;20.70;97.70;;;;;;4961633;28;20536;-70
2022/07/16 13:04:16;;;;;;;;;;;20.70;97.20;;;;;;4959721;28;20254;-70
2022/07/16 13:06:42;;;;;;;5.15;0.90;;;20.60;93.20;;;;;;4964625;28;20386;-71
2022/07/16 13:09:08;;;;;;;3.72;0.45;;;20.50;97.10;;;;;;4965384;28;20047;-70
2022/07/16 13:11:35;;;;;;;4.07;0.55;;;20.60;96.60;;;;;;4957452;28;20522;-70